FSIA Airport Information

Runway Information
Runway 13 Length 9800 ft width 151 ft
Elevation 10 ft Threshold 1000 ft Heading 125
Runway 31 Length 9800 ft Width 151 ft
Elevation 10 ft Threshold 1000 ft Heading 305
Airport Frequencies
Type APP Name APP Frequency 119.7 MHZ
Type TWR Name TWR Frequency 118.3 MHZ
Airport Navaids
Type VOR-DME Name Seychelles Frequency 113100 KHZ
Type NDB Name Seychelles Frequency 373 KHZ
Airport Weather Information & NOTAM
ADDS - METARS form results

(1124 UTC 22 January 2022)
Data provider http://aviationweather.gov/metar/data/
 
METAR text: FSIA 221100Z 35014KT 9999 FEW020CB 29/24 Q1009 NOSIG
Conditions at: FSIA (SEYCHELLES INTL , SC) observed 1100 UTC 22 January 2022
Temperature: 29.0°C (84°F)
Dewpoint: 24.0°C (75°F) [RH = 74%]
Pressure (altimeter): 29.79 inches Hg (1009.0 mb)
Winds: from the N (350 degrees) at 16 MPH (14 knots; 7.2 m/s)
Visibility: 6 or more miles (10+ km)
Ceiling: at least 12,000 feet AGL
Clouds: few clouds at 2000 feet AGL
Weather: no significant weather observed at this time

Forecast for: FSIA (SEYCHELLES INTL , SC)
Text: TAF FSIA 221101Z 2212/2312 35010KT 9999 SCT022
Forecast period: 1200 UTC 22 January 2022 to 1200 UTC 23 January 2022
Forecast type: FROM: standard forecast or significant change
Winds: from the N (350 degrees) at 12 MPH (10 knots; 5.1 m/s)
Visibility: 6 or more miles (10+ km)
Ceiling: at least 12,000 feet AGL
Clouds: scattered clouds at 2200 feet AGL
Weather: no significant weather forecast for this period